Time;durP1;ratioP1;P1;durP2;ratioP2;P2;SDS_P1;SDS_P2;PMS_P1;PMS_P2;Temp;Humidity;BMP_temperature;BMP_pressure;BME280_temperature;BME280_humidity;BME280_pressure;Samples;Min_cycle;Max_cycle;Signal;HPM_P1;HPM_P2
2022/09/01 00:02:07;;;;;;;9.83;8.43;;;16.00;99.90;;;;;;5012178;28;20243;-50
2022/09/01 00:04:37;;;;;;;10.17;8.33;;;16.10;99.90;;;;;;5010548;28;20440;-50
2022/09/01 00:07:05;;;;;;;9.90;8.70;;;16.30;99.90;;;;;;5011420;28;20469;-50
2022/09/01 00:09:34;;;;;;;12.50;11.27;;;16.20;99.90;;;;;;5011694;28;20230;-49
2022/09/01 00:12:02;;;;;;;11.43;10.23;;;16.20;99.90;;;;;;5011218;28;20491;-49
2022/09/01 00:14:32;;;;;;;12.70;11.23;;;16.10;99.90;;;;;;5012008;28;20956;-50
2022/09/01 00:17:01;;;;;;;12.10;10.90;;;16.30;99.90;;;;;;5012221;28;20505;-50
2022/09/01 00:19:28;;;;;;;10.27;9.30;;;16.10;99.90;;;;;;5011272;28;20447;-50
2022/09/01 00:21:56;;;;;;;13.32;12.00;;;15.90;99.90;;;;;;5011521;28;20482;-49
2022/09/01 00:24:24;;;;;;;10.93;9.70;;;15.90;99.90;;;;;;5011756;28;20204;-51
2022/09/01 00:26:53;;;;;;;13.17;9.47;;;16.00;99.90;;;;;;5012363;28;20447;-49
2022/09/01 00:29:20;;;;;;;11.47;10.37;;;16.00;99.90;;;;;;5011453;28;20466;-49
2022/09/01 00:31:47;;;;;;;12.30;11.10;;;16.00;99.90;;;;;;5011370;28;20507;-50
2022/09/01 00:34:15;;;;;;;15.70;14.20;;;16.10;99.90;;;;;;5011639;28;20836;-49
2022/09/01 00:36:42;;;;;;;17.55;15.00;;;15.90;99.90;;;;;;5011655;28;20508;-49
2022/09/01 00:39:10;;;;;;;17.60;15.80;;;15.90;99.90;;;;;;5010942;28;20238;-49
2022/09/01 00:41:43;;;;;;;18.50;15.73;;;15.90;99.90;;;;;;5011388;28;20471;-49
2022/09/01 00:44:14;;;;;;;12.53;11.17;;;15.90;99.90;;;;;;5011674;28;20941;-51
2022/09/01 00:46:44;;;;;;;13.23;12.00;;;16.00;99.90;;;;;;5011356;28;20455;-49
2022/09/01 00:49:16;;;;;;;20.33;14.40;;;16.00;99.90;;;;;;5010761;28;20514;-49
2022/09/01 00:51:46;;;;;;;15.50;13.90;;;16.20;99.90;;;;;;5011082;28;20783;-50
2022/09/01 00:54:18;;;;;;;18.23;16.03;;;15.90;99.90;;;;;;5011300;28;20534;-49
2022/09/01 00:56:47;;;;;;;15.87;14.30;;;15.80;99.90;;;;;;5011450;28;20435;-49
2022/09/01 00:59:18;;;;;;;15.83;14.30;;;15.70;99.90;;;;;;5010529;28;20443;-49
2022/09/01 01:01:45;;;;;;;15.23;13.53;;;15.80;99.90;;;;;;5010559;28;20489;-50
2022/09/01 01:04:14;;;;;;;15.97;14.33;;;15.60;99.90;;;;;;5009074;28;20438;-49
2022/09/01 01:06:48;;;;;;;15.73;14.13;;;15.80;99.90;;;;;;5010455;28;20480;-50
2022/09/01 01:09:16;;;;;;;14.13;12.73;;;15.70;99.90;;;;;;5010303;28;20462;-50
2022/09/01 01:11:44;;;;;;;13.53;10.47;;;16.10;99.90;;;;;;5010239;28;20601;-50
2022/09/01 01:14:11;;;;;;;13.48;12.18;;;16.10;99.90;;;;;;5011048;28;20455;-49
2022/09/01 01:16:43;;;;;;;13.67;12.27;;;15.90;99.90;;;;;;5010838;28;20262;-50
2022/09/01 01:23:00;;;;;;;14.47;13.07;;;16.00;99.90;;;;;;5010178;28;20439;-49
2022/09/01 01:24:54;;;;;;;16.83;12.97;;;15.90;99.90;;;;;;5010597;28;20429;-49
2022/09/01 01:27:21;;;;;;;13.77;12.57;;;15.70;99.90;;;;;;5010905;28;20459;-51
2022/09/01 01:29:49;;;;;;;14.23;12.70;;;15.70;99.90;;;;;;5009975;28;20435;-50
2022/09/01 01:32:16;;;;;;;17.90;13.83;;;15.60;99.90;;;;;;5010787;28;20479;-49
2022/09/01 01:34:45;;;;;;;14.30;12.90;;;15.80;99.90;;;;;;5010592;28;20534;-50
2022/09/01 01:37:14;;;;;;;11.83;10.27;;;15.70;99.90;;;;;;5010424;28;20992;-49
2022/09/01 01:39:43;;;;;;;11.40;10.33;;;15.60;99.90;;;;;;5009888;28;20830;-50
2022/09/01 01:42:11;;;;;;;11.40;9.50;;;15.50;99.90;;;;;;5010363;28;20471;-50
2022/09/01 01:44:39;;;;;;;12.13;10.93;;;15.50;99.90;;;;;;5010663;28;20482;-49
2022/09/01 01:47:11;;;;;;;12.37;11.07;;;15.30;99.90;;;;;;5010426;28;20455;-49
2022/09/01 01:49:42;;;;;;;11.30;10.20;;;15.40;99.90;;;;;;5009851;28;20451;-50
2022/09/01 01:52:13;;;;;;;8.87;7.90;;;15.80;99.90;;;;;;5010037;28;20530;-49
2022/09/01 01:54:40;;;;;;;11.07;9.90;;;15.80;99.90;;;;;;5010351;28;20439;-50
2022/09/01 01:57:08;;;;;;;12.23;11.03;;;15.90;99.90;;;;;;5010613;28;20879;-49
2022/09/01 01:59:37;;;;;;;11.97;10.67;;;15.70;99.90;;;;;;5009761;28;20542;-51
2022/09/01 02:02:07;;;;;;;11.73;10.33;;;15.70;99.90;;;;;;5010147;28;20525;-50
2022/09/01 02:04:34;;;;;;;12.10;10.93;;;15.40;99.90;;;;;;5008535;28;20509;-51
2022/09/01 02:07:01;;;;;;;11.83;9.90;;;15.50;99.90;;;;;;5009410;28;20204;-53
2022/09/01 02:09:28;;;;;;;11.30;9.63;;;15.80;99.90;;;;;;5009493;28;20933;-48
2022/09/01 02:11:56;;;;;;;10.03;8.73;;;16.00;99.90;;;;;;5009341;28;20247;-49
2022/09/01 02:14:23;;;;;;;13.33;12.13;;;15.90;99.90;;;;;;5013874;28;20451;-50
2022/09/01 02:16:54;;;;;;;12.53;11.33;;;15.80;99.90;;;;;;5016558;28;20493;-50
2022/09/01 02:19:22;;;;;;;8.60;7.80;;;15.70;99.90;;;;;;5016052;28;20466;-49
2022/09/01 02:21:53;;;;;;;6.93;6.22;;;16.00;99.90;;;;;;5016199;28;20485;-49
2022/09/01 02:24:20;;;;;;;5.63;5.13;;;16.10;99.90;;;;;;5016698;28;20200;-49
2022/09/01 02:26:47;;;;;;;7.03;5.93;;;16.10;99.90;;;;;;5016699;28;20438;-49
2022/09/01 02:29:19;;;;;;;6.90;6.30;;;16.00;99.90;;;;;;5015792;28;20473;-51
2022/09/01 02:31:48;;;;;;;7.73;6.93;;;15.90;99.90;;;;;;5016271;28;20991;-49
2022/09/01 02:34:17;;;;;;;10.37;9.23;;;15.80;99.90;;;;;;5016766;28;20485;-50
2022/09/01 02:36:47;;;;;;;10.87;9.77;;;15.90;99.90;;;;;;5016839;28;20447;-49
2022/09/01 02:39:15;;;;;;;10.38;9.48;;;16.00;99.90;;;;;;5016240;28;20533;-49
2022/09/01 02:41:42;;;;;;;13.30;12.00;;;15.70;99.90;;;;;;5016248;28;20243;-50
2022/09/01 02:44:11;;;;;;;14.93;12.70;;;15.40;99.90;;;;;;5016344;28;20903;-49
2022/09/01 02:46:40;;;;;;;14.75;12.70;;;15.60;99.90;;;;;;5016478;28;20447;-50
2022/09/01 02:49:13;;;;;;;11.93;10.70;;;15.50;99.90;;;;;;5015583;28;20196;-49
2022/09/01 02:51:43;;;;;;;13.43;12.10;;;15.50;99.90;;;;;;5016122;28;20525;-49
2022/09/01 02:54:14;;;;;;;10.37;9.37;;;15.60;99.90;;;;;;5016227;28;20459;-50
2022/09/01 02:56:41;;;;;;;9.20;8.20;;;15.70;99.90;;;;;;5016390;28;20557;-49
2022/09/01 02:59:11;;;;;;;13.67;7.80;;;15.60;99.90;;;;;;5015685;28;20497;-49
2022/09/01 03:01:39;;;;;;;11.00;9.80;;;15.70;99.90;;;;;;5016067;28;20509;-52
2022/09/01 03:04:08;;;;;;;12.67;11.47;;;15.70;99.90;;;;;;5014443;28;20913;-49
2022/09/01 03:06:36;;;;;;;12.07;10.87;;;15.40;99.90;;;;;;5015584;28;20507;-49
2022/09/01 03:09:07;;;;;;;12.43;11.17;;;15.30;99.90;;;;;;5015410;28;20929;-51
2022/09/01 03:11:37;;;;;;;11.60;10.40;;;15.70;99.90;;;;;;5015427;28;20564;-49
2022/09/01 03:14:06;;;;;;;12.60;11.37;;;15.50;99.90;;;;;;5016597;28;20450;-49
2022/09/01 03:16:33;;;;;;;12.10;10.90;;;15.50;99.90;;;;;;5016025;28;20476;-49
2022/09/01 03:19:02;;;;;;;11.87;10.67;;;15.70;99.90;;;;;;5015387;28;20968;-49
2022/09/01 03:21:31;;;;;;;11.87;10.03;;;15.70;99.90;;;;;;5015385;28;20470;-49
2022/09/01 03:24:00;;;;;;;9.70;8.80;;;15.70;99.90;;;;;;5015978;28;20964;-51
2022/09/01 03:26:30;;;;;;;10.85;9.85;;;15.90;99.90;;;;;;5012387;28;20443;-50
2022/09/01 03:28:57;;;;;;;10.93;9.93;;;15.80;99.90;;;;;;5012269;28;20747;-49
2022/09/01 03:31:27;;;;;;;11.77;9.90;;;15.60;99.90;;;;;;5012493;28;20481;-50
2022/09/01 03:33:55;;;;;;;12.17;10.90;;;15.40;99.90;;;;;;5012695;28;20440;-49
2022/09/01 03:36:23;;;;;;;11.98;10.63;;;15.50;99.90;;;;;;5012817;28;20542;-49
2022/09/01 03:38:51;;;;;;;11.60;10.40;;;15.60;99.90;;;;;;5012091;28;20677;-49
2022/09/01 03:41:20;;;;;;;11.65;10.60;;;15.80;99.90;;;;;;5012564;28;20535;-49
2022/09/01 03:43:50;;;;;;;12.70;10.03;;;15.90;99.90;;;;;;5012643;28;20271;-52
2022/09/01 03:46:20;;;;;;;11.77;10.57;;;15.80;99.90;;;;;;5012622;28;20944;-49
2022/09/01 03:48:49;;;;;;;14.40;10.93;;;15.80;99.90;;;;;;5011841;28;20978;-49
2022/09/01 03:51:17;;;;;;;12.37;11.07;;;15.60;99.90;;;;;;5012286;28;20459;-50
2022/09/01 03:53:44;;;;;;;12.87;11.50;;;15.70;99.90;;;;;;5012504;28;21030;-49
2022/09/01 03:56:12;;;;;;;11.40;10.13;;;15.80;99.90;;;;;;5012256;28;20438;-49
2022/09/01 03:58:40;;;;;;;12.20;11.00;;;15.70;99.90;;;;;;5012027;28;20543;-56
2022/09/01 04:01:10;;;;;;;12.27;10.97;;;15.50;99.90;;;;;;5012076;28;20497;-50
2022/09/01 04:03:40;;;;;;;12.67;11.37;;;15.60;99.90;;;;;;5011402;28;20470;-50
2022/09/01 04:06:09;;;;;;;12.50;11.30;;;15.60;99.90;;;;;;5011696;28;20503;-50
2022/09/01 04:08:37;;;;;;;11.67;10.50;;;15.70;99.90;;;;;;5012122;28;20448;-50
2022/09/01 04:11:10;;;;;;;11.80;10.60;;;15.70;99.90;;;;;;5011005;28;20471;-49
2022/09/01 04:13:39;;;;;;;12.77;11.43;;;15.60;99.90;;;;;;5011949;28;20470;-49
2022/09/01 04:18:03;;;;;;;12.00;10.77;;;15.60;99.90;;;;;;5012106;28;20462;-49
2022/09/01 04:19:14;;;;;;;13.43;12.03;;;15.90;99.90;;;;;;5011024;28;20528;-50
2022/09/01 04:21:41;;;;;;;12.47;11.27;;;15.80;99.90;;;;;;5043185;22;20525;-50
2022/09/01 04:24:09;;;;;;;12.20;11.10;;;15.60;99.90;;;;;;5031676;28;20454;-50
2022/09/01 04:26:37;;;;;;;12.20;11.00;;;15.60;99.90;;;;;;5031574;28;20954;-50
2022/09/01 04:29:05;;;;;;;12.90;11.57;;;15.60;99.90;;;;;;5030902;28;20450;-52
2022/09/01 04:31:34;;;;;;;16.00;12.23;;;15.70;99.90;;;;;;5031200;28;20457;-50
2022/09/01 04:34:01;;;;;;;13.53;10.77;;;15.70;99.90;;;;;;5031326;28;20438;-50
2022/09/01 04:36:32;;;;;;;13.10;11.67;;;15.60;99.90;;;;;;5031555;28;20454;-50
2022/09/01 04:39:07;;;;;;;12.23;10.98;;;15.60;99.90;;;;;;5030804;28;20455;-50
2022/09/01 04:41:36;;;;;;;13.93;11.23;;;15.70;99.90;;;;;;5031258;28;20226;-51
2022/09/01 04:44:04;;;;;;;12.93;11.50;;;15.60;99.90;;;;;;5031262;28;20819;-50
2022/09/01 04:46:34;;;;;;;13.20;11.90;;;15.40;99.90;;;;;;5031305;28;20458;-51
2022/09/01 04:49:08;;;;;;;14.37;13.07;;;15.40;99.90;;;;;;5030717;28;20458;-50
2022/09/01 04:51:38;;;;;;;13.60;11.37;;;15.40;99.90;;;;;;5030859;28;21218;-52
2022/09/01 04:54:13;;;;;;;12.85;11.68;;;15.40;99.90;;;;;;5031201;28;20447;-50
2022/09/01 04:56:42;;;;;;;13.47;12.10;;;15.40;99.90;;;;;;5031106;28;20679;-50
2022/09/01 04:59:10;;;;;;;11.87;10.77;;;15.40;99.90;;;;;;5030395;28;20803;-51
2022/09/01 05:01:43;;;;;;;12.90;11.70;;;15.50;99.90;;;;;;5030714;28;20526;-50
2022/09/01 05:04:13;;;;;;;12.47;11.27;;;15.30;99.90;;;;;;5029837;28;20435;-51
2022/09/01 05:06:41;;;;;;;13.60;12.10;;;15.30;99.90;;;;;;5029878;28;20669;-50
2022/09/01 05:09:10;;;;;;;14.90;13.50;;;15.40;99.90;;;;;;5030161;28;20466;-50
2022/09/01 05:11:37;;;;;;;13.05;11.75;;;15.40;99.90;;;;;;5030080;28;20214;-52
2022/09/01 05:14:05;;;;;;;16.40;12.20;;;15.30;99.90;;;;;;5030707;28;20683;-50
2022/09/01 05:16:34;;;;;;;14.53;13.03;;;15.50;99.90;;;;;;5031090;28;20561;-50
2022/09/01 05:19:04;;;;;;;13.40;12.13;;;15.50;99.90;;;;;;5029866;28;20441;-51
2022/09/01 05:21:31;;;;;;;16.27;14.57;;;15.60;99.90;;;;;;5030232;28;20481;-50
2022/09/01 05:24:00;;;;;;;15.23;13.70;;;15.40;99.90;;;;;;5030492;28;20446;-49
2022/09/01 05:26:30;;;;;;;15.70;14.10;;;15.30;99.90;;;;;;5030397;28;20549;-51
2022/09/01 05:28:59;;;;;;;15.35;13.50;;;15.50;99.90;;;;;;5029586;28;20543;-52
2022/09/01 05:31:36;;;;;;;15.17;12.50;;;15.40;99.90;;;;;;5030320;28;20247;-51
2022/09/01 05:34:08;;;;;;;16.83;14.20;;;15.40;99.90;;;;;;5030181;28;20485;-50
2022/09/01 05:36:36;;;;;;;18.80;15.23;;;15.50;99.90;;;;;;5030134;28;21030;-50
2022/09/01 05:39:05;;;;;;;15.07;13.57;;;15.40;99.90;;;;;;5030134;28;20532;-50
2022/09/01 05:41:33;;;;;;;17.27;14.75;;;15.50;99.90;;;;;;5030126;28;20980;-50
2022/09/01 05:44:05;;;;;;;15.37;13.87;;;15.50;99.90;;;;;;5030284;28;20203;-50
2022/09/01 05:46:32;;;;;;;16.20;14.40;;;15.60;99.90;;;;;;5030215;28;20450;-49
2022/09/01 05:48:59;;;;;;;16.57;15.03;;;15.50;99.90;;;;;;5028946;28;20499;-50
2022/09/01 05:51:34;;;;;;;15.83;14.03;;;15.60;99.90;;;;;;5030178;28;20847;-50
2022/09/01 05:54:01;;;;;;;18.65;14.05;;;15.40;99.90;;;;;;5029787;28;20478;-50
2022/09/01 05:56:29;;;;;;;16.97;15.17;;;15.20;99.90;;;;;;5030145;28;20215;-50
2022/09/01 05:58:58;;;;;;;15.63;14.00;;;15.20;99.90;;;;;;5029656;28;20450;-50
2022/09/01 06:01:29;;;;;;;16.27;14.40;;;15.30;99.90;;;;;;5029859;28;20477;-50
2022/09/01 06:03:58;;;;;;;17.87;14.80;;;15.50;99.90;;;;;;5029095;28;20442;-50
2022/09/01 06:06:29;;;;;;;20.40;16.77;;;15.50;99.90;;;;;;5028654;28;20842;-51
2022/09/01 06:08:57;;;;;;;17.40;15.30;;;15.60;99.90;;;;;;5029381;28;20461;-50
2022/09/01 06:11:25;;;;;;;19.70;16.00;;;15.50;99.90;;;;;;5028026;28;20470;-51
2022/09/01 06:13:55;;;;;;;17.80;14.77;;;15.60;99.90;;;;;;5029649;28;20506;-50
2022/09/01 06:16:23;;;;;;;30.77;16.10;;;15.50;99.90;;;;;;5029985;28;20936;-50
2022/09/01 06:18:51;;;;;;;17.90;15.57;;;15.30;99.90;;;;;;5029425;28;20450;-50
2022/09/01 06:21:18;;;;;;;22.10;16.80;;;14.90;99.90;;;;;;5029523;28;20329;-52
2022/09/01 06:23:49;;;;;;;17.20;14.93;;;15.20;99.90;;;;;;5029995;28;20435;-52
2022/09/01 06:26:18;;;;;;;21.67;15.00;;;15.50;99.90;;;;;;5029658;28;20485;-50
2022/09/01 06:28:45;;;;;;;32.83;16.50;;;15.60;99.90;;;;;;5029800;28;20516;-51
2022/09/01 06:31:13;;;;;;;21.63;15.15;;;15.40;99.90;;;;;;5029559;28;21042;-50
2022/09/01 06:33:41;;;;;;;15.03;13.43;;;15.50;99.90;;;;;;5029467;28;20223;-47
2022/09/01 06:36:09;;;;;;;18.30;14.70;;;15.50;99.90;;;;;;5029728;28;20458;-51
2022/09/01 06:38:38;;;;;;;16.30;14.57;;;15.30;99.90;;;;;;5029638;28;20481;-50
2022/09/01 06:41:09;;;;;;;17.80;14.15;;;15.50;99.90;;;;;;5029123;28;20933;-50
2022/09/01 06:43:38;;;;;;;15.50;13.83;;;15.60;99.90;;;;;;5029591;28;20249;-50
2022/09/01 06:46:05;;;;;;;16.07;14.37;;;15.80;99.90;;;;;;5029539;28;20640;-50
2022/09/01 06:48:32;;;;;;;25.37;17.47;;;15.20;99.90;;;;;;5029495;28;20439;-49
2022/09/01 06:51:01;;;;;;;47.50;22.30;;;15.50;99.90;;;;;;5029017;28;20653;-51
2022/09/01 06:53:30;;;;;;;35.57;20.20;;;15.70;99.90;;;;;;5029978;28;20496;-49
2022/09/01 06:55:58;;;;;;;44.07;20.90;;;15.50;99.90;;;;;;5030031;28;20466;-49
2022/09/01 06:58:27;;;;;;;29.95;17.98;;;15.50;99.90;;;;;;5030005;28;20461;-49
2022/09/01 07:00:54;;;;;;;27.67;16.33;;;15.70;99.90;;;;;;5030469;28;20663;-48
2022/09/01 07:03:23;;;;;;;23.70;15.80;;;15.70;99.90;;;;;;5032236;28;20941;-49
2022/09/01 07:05:50;;;;;;;18.27;14.73;;;15.50;99.90;;;;;;5032018;28;20536;-48
2022/09/01 07:08:20;;;;;;;17.87;14.00;;;15.30;99.90;;;;;;5033122;28;20472;-49
2022/09/01 07:10:50;;;;;;;18.30;14.50;;;15.50;99.90;;;;;;5031748;28;20537;-50
2022/09/01 07:13:22;;;;;;;33.77;15.33;;;15.70;99.90;;;;;;5032878;28;20481;-48
2022/09/01 07:15:53;;;;;;;34.40;16.65;;;15.80;99.90;;;;;;5032944;28;20442;-49
2022/09/01 07:18:24;;;;;;;27.00;13.97;;;15.70;99.90;;;;;;5033092;28;20261;-49
2022/09/01 07:20:51;;;;;;;20.10;14.17;;;15.90;99.90;;;;;;5031865;28;20446;-51
2022/09/01 07:23:19;;;;;;;15.13;11.77;;;15.90;99.90;;;;;;5032979;28;20458;-48
2022/09/01 07:25:48;;;;;;;15.77;12.57;;;15.80;99.90;;;;;;5032938;28;20450;-49
2022/09/01 07:28:17;;;;;;;12.43;11.13;;;15.70;99.90;;;;;;5032678;28;20507;-51
2022/09/01 07:30:47;;;;;;;17.93;12.20;;;15.70;99.90;;;;;;5032019;28;20206;-49
2022/09/01 07:33:19;;;;;;;16.70;11.50;;;15.80;99.90;;;;;;5032958;28;20474;-49
2022/09/01 07:35:47;;;;;;;29.80;12.60;;;15.80;99.90;;;;;;5032442;28;20434;-50
2022/09/01 07:38:18;;;;;;;39.80;13.87;;;15.70;99.90;;;;;;5032542;28;20438;-49
2022/09/01 07:40:46;;;;;;;21.80;11.93;;;15.70;99.90;;;;;;5032205;28;20456;-49
2022/09/01 07:43:21;;;;;;;21.50;13.10;;;15.80;99.90;;;;;;5032674;28;20450;-50
2022/09/01 07:45:50;;;;;;;19.30;13.33;;;15.90;99.90;;;;;;5032924;28;20441;-48
2022/09/01 07:48:19;;;;;;;14.00;11.20;;;15.20;99.90;;;;;;5032378;28;20916;-49
2022/09/01 07:50:49;;;;;;;20.70;13.57;;;15.50;99.90;;;;;;5031913;28;20814;-51
2022/09/01 07:53:17;;;;;;;16.77;12.90;;;15.60;99.90;;;;;;5032183;28;20538;-49
2022/09/01 07:55:45;;;;;;;16.30;13.73;;;15.60;99.90;;;;;;5032075;28;20240;-50
2022/09/01 07:58:12;;;;;;;17.07;12.33;;;15.50;99.90;;;;;;5032020;28;20466;-49
2022/09/01 08:00:40;;;;;;;32.93;17.43;;;15.10;99.90;;;;;;5031404;28;20994;-49
2022/09/01 08:03:07;;;;;;;18.08;14.25;;;15.40;99.90;;;;;;5030297;28;20467;-49
2022/09/01 08:05:35;;;;;;;16.75;13.63;;;15.40;99.90;;;;;;5030455;28;20255;-51
2022/09/01 08:08:03;;;;;;;13.33;11.40;;;15.70;99.90;;;;;;5032009;28;20242;-50
2022/09/01 08:10:30;;;;;;;11.40;10.20;;;15.30;99.90;;;;;;5029648;28;20784;-52
2022/09/01 08:12:57;;;;;;;11.90;10.70;;;15.70;99.90;;;;;;5031074;28;20474;-51
2022/09/01 08:15:24;;;;;;;15.53;12.00;;;16.00;99.90;;;;;;5031958;28;20540;-51
2022/09/01 08:17:51;;;;;;;12.40;11.10;;;15.90;99.90;;;;;;5031890;28;20855;-47
2022/09/01 08:20:19;;;;;;;15.90;11.17;;;15.70;99.90;;;;;;5031063;28;20463;-50
2022/09/01 08:22:47;;;;;;;12.03;10.47;;;15.80;99.90;;;;;;5031235;28;20466;-50
2022/09/01 08:25:14;;;;;;;12.23;11.03;;;15.90;99.90;;;;;;5031731;28;20514;-50
2022/09/01 08:27:42;;;;;;;13.80;11.50;;;16.00;99.90;;;;;;5031458;28;20439;-51
2022/09/01 08:30:12;;;;;;;11.60;10.40;;;16.30;99.90;;;;;;5031078;28;20866;-51
2022/09/01 08:32:40;;;;;;;10.80;9.70;;;16.40;99.90;;;;;;5031462;28;20767;-50
2022/09/01 08:35:09;;;;;;;11.90;10.63;;;16.60;99.90;;;;;;5031419;28;20492;-51
2022/09/01 08:37:36;;;;;;;11.57;10.33;;;16.60;99.90;;;;;;5031420;28;20447;-50
2022/09/01 08:40:06;;;;;;;11.77;9.97;;;16.60;99.90;;;;;;5030401;28;20959;-50
2022/09/01 08:42:48;;;;;;;10.73;9.63;;;16.80;99.90;;;;;;5031168;28;20810;-52
2022/09/01 08:45:22;;;;;;;8.30;7.60;;;16.80;99.90;;;;;;5031484;28;20614;-50
2022/09/01 08:47:53;;;;;;;10.10;9.00;;;16.80;99.90;;;;;;5031207;28;20441;-51
2022/09/01 08:50:21;;;;;;;10.23;8.52;;;16.80;99.90;;;;;;5030524;28;20537;-52
2022/09/01 08:52:54;;;;;;;9.00;8.20;;;16.70;99.90;;;;;;5030976;28;20692;-51
2022/09/01 08:55:31;;;;;;;8.50;7.70;;;16.80;99.90;;;;;;5031205;28;20481;-50
2022/09/01 08:58:00;;;;;;;8.93;8.03;;;16.90;99.90;;;;;;5030924;28;20492;-51
2022/09/01 09:00:29;;;;;;;8.80;7.27;;;16.80;99.90;;;;;;5030238;28;20798;-51
2022/09/01 09:03:09;;;;;;;8.80;8.00;;;16.90;99.90;;;;;;5029799;28;20466;-50
2022/09/01 09:05:49;;;;;;;8.43;7.63;;;17.00;99.90;;;;;;5030840;28;20203;-51
2022/09/01 09:08:41;;;;;;;8.73;7.93;;;17.00;99.90;;;;;;5030846;28;20607;-51
2022/09/01 09:11:24;;;;;;;10.52;7.72;;;17.00;99.90;;;;;;5029922;28;20529;-51
2022/09/01 09:14:04;;;;;;;10.97;7.30;;;17.00;99.90;;;;;;5030650;28;20277;-50
2022/09/01 09:16:37;;;;;;;7.03;6.33;;;17.20;99.90;;;;;;5031271;28;20464;-50
2022/09/01 09:19:10;;;;;;;8.40;7.20;;;17.30;99.90;;;;;;5030110;28;20516;-51
2022/09/01 09:21:40;;;;;;;8.10;7.20;;;17.40;99.90;;;;;;5030502;28;20473;-50
2022/09/01 09:24:10;;;;;;;7.90;7.20;;;17.50;99.90;;;;;;5029674;28;20808;-50
2022/09/01 09:26:39;;;;;;;7.65;6.85;;;17.30;99.90;;;;;;5030539;28;20533;-49
2022/09/01 09:29:06;;;;;;;8.00;6.23;;;17.30;99.90;;;;;;5029795;28;20215;-50
2022/09/01 09:31:37;;;;;;;7.80;6.80;;;17.30;99.90;;;;;;5030274;28;20987;-51
2022/09/01 09:34:16;;;;;;;6.97;6.28;;;17.00;99.90;;;;;;5030280;28;20506;-50
2022/09/01 09:36:45;;;;;;;23.37;10.23;;;16.90;99.90;;;;;;5030318;28;20688;-52
2022/09/01 09:39:15;;;;;;;6.57;5.93;;;17.10;99.90;;;;;;5029585;28;20810;-51
2022/09/01 09:42:01;;;;;;;7.40;6.30;;;17.10;99.90;;;;;;5030148;28;20478;-50
2022/09/01 09:44:31;;;;;;;11.80;7.43;;;17.20;99.90;;;;;;5030346;28;20528;-51
2022/09/01 09:47:00;;;;;;;6.25;5.65;;;16.90;99.90;;;;;;5030324;28;20442;-50
2022/09/01 09:49:29;;;;;;;7.00;5.90;;;17.00;99.90;;;;;;5029485;28;20288;-50
2022/09/01 09:52:13;;;;;;;6.50;5.80;;;17.00;99.90;;;;;;5029817;28;20446;-51
2022/09/01 09:54:58;;;;;;;11.70;6.57;;;17.00;99.90;;;;;;5029898;28;20909;-50
2022/09/01 09:57:27;;;;;;;6.13;5.53;;;17.50;99.90;;;;;;5030240;28;20450;-51
2022/09/01 10:00:00;;;;;;;7.20;5.87;;;17.30;99.90;;;;;;5028049;28;20976;-51
2022/09/01 10:02:32;;;;;;;6.27;5.57;;;17.20;99.90;;;;;;5028654;28;20493;-50
2022/09/01 10:05:00;;;;;;;6.32;5.72;;;16.90;99.90;;;;;;5027603;28;20441;-50
2022/09/01 10:07:31;;;;;;;7.90;5.83;;;17.10;99.90;;;;;;5029753;28;20214;-51
2022/09/01 10:10:01;;;;;;;6.47;5.87;;;17.00;99.90;;;;;;5029025;28;20447;-50
2022/09/01 10:12:30;;;;;;;6.32;5.65;;;17.10;99.90;;;;;;5029255;28;20466;-50
2022/09/01 10:15:01;;;;;;;5.38;4.85;;;17.00;99.90;;;;;;5028856;28;20786;-49
2022/09/01 10:17:33;;;;;;;7.10;5.30;;;17.30;99.90;;;;;;5029161;28;20208;-51
2022/09/01 10:20:06;;;;;;;5.50;4.83;;;17.30;99.90;;;;;;5028688;28;20538;-51
2022/09/01 10:22:34;;;;;;;6.95;5.03;;;17.40;99.90;;;;;;5097242;22;20492;-50
2022/09/01 10:25:02;;;;;;;6.43;5.83;;;17.40;99.90;;;;;;5049091;28;20199;-52
2022/09/01 10:27:33;;;;;;;5.67;5.17;;;17.50;99.90;;;;;;5049404;28;20942;-50
2022/09/01 10:30:08;;;;;;;5.93;5.37;;;17.50;99.90;;;;;;5048312;28;20422;-50
2022/09/01 10:32:40;;;;;;;6.40;5.00;;;17.40;99.90;;;;;;5041139;28;20457;-50
2022/09/01 10:35:11;;;;;;;5.73;5.17;;;17.30;99.90;;;;;;5029742;28;20505;-50
2022/09/01 10:37:39;;;;;;;5.93;5.33;;;17.20;99.90;;;;;;5030615;28;20430;-51
2022/09/01 10:40:20;;;;;;;5.77;5.27;;;17.30;99.90;;;;;;5031682;28;20453;-50
2022/09/01 10:42:53;;;;;;;5.73;5.13;;;17.30;99.90;;;;;;5031113;28;20551;-50
2022/09/01 10:45:31;;;;;;;5.47;4.97;;;17.40;99.90;;;;;;5029966;28;20438;-50
2022/09/01 10:48:23;;;;;;;6.10;5.40;;;17.40;99.90;;;;;;5030160;28;20453;-50
2022/09/01 10:50:52;;;;;;;5.17;4.73;;;17.70;99.90;;;;;;5012742;28;20862;-50
2022/09/01 10:53:40;;;;;;;6.10;4.77;;;17.70;99.90;;;;;;5013507;28;20470;-50
2022/09/01 10:56:13;;;;;;;5.90;5.30;;;17.60;99.90;;;;;;5017919;28;20875;-50
2022/09/01 10:59:00;;;;;;;4.90;4.50;;;17.50;99.90;;;;;;5032745;28;20438;-49
2022/09/01 11:02:05;;;;;;;5.27;4.40;;;17.60;99.90;;;;;;5033336;28;20665;-51
2022/09/01 11:05:05;;;;;;;4.93;4.43;;;17.50;99.90;;;;;;5031813;28;20985;-49
2022/09/01 11:07:34;;;;;;;5.23;4.73;;;17.50;99.90;;;;;;5030213;28;20714;-49
2022/09/01 11:10:40;;;;;;;8.50;4.93;;;17.60;99.90;;;;;;5032796;28;20943;-49
2022/09/01 11:13:31;;;;;;;4.65;4.25;;;17.40;99.90;;;;;;5026987;28;20492;-50
2022/09/01 11:16:30;;;;;;;5.47;4.73;;;17.50;99.90;;;;;;5026012;28;20218;-49
2022/09/01 11:19:31;;;;;;;6.13;4.60;;;17.50;99.90;;;;;;5032840;28;20516;-51
2022/09/01 11:22:18;;;;;;;4.03;3.63;;;17.30;99.90;;;;;;5030921;28;20478;-49
2022/09/01 11:25:04;;;;;;;4.47;4.07;;;17.50;99.90;;;;;;5021714;28;20450;-48
2022/09/01 11:27:58;;;;;;;4.93;3.78;;;17.40;99.90;;;;;;5032251;28;20455;-49
2022/09/01 11:30:35;;;;;;;3.90;3.50;;;17.60;99.90;;;;;;5030798;28;20711;-49
2022/09/01 11:33:17;;;;;;;5.17;4.70;;;17.80;99.90;;;;;;5031460;28;20223;-50
2022/09/01 11:35:46;;;;;;;4.90;4.40;;;17.90;99.90;;;;;;5031508;28;20522;-49
2022/09/01 11:38:16;;;;;;;5.15;4.60;;;17.80;99.90;;;;;;5031689;28;20486;-49
2022/09/01 11:40:43;;;;;;;8.03;5.17;;;17.70;99.90;;;;;;5030807;28;20199;-49
2022/09/01 11:43:15;;;;;;;5.13;4.67;;;17.70;99.90;;;;;;5032267;28;20543;-49
2022/09/01 11:45:52;;;;;;;4.50;4.10;;;17.60;99.90;;;;;;5032763;28;20434;-49
2022/09/01 11:48:20;;;;;;;4.18;3.78;;;17.60;99.90;;;;;;5032198;28;20834;-49
2022/09/01 11:50:58;;;;;;;4.00;3.70;;;17.60;99.90;;;;;;5031840;28;20241;-50
2022/09/01 11:53:26;;;;;;;4.73;4.23;;;17.70;99.90;;;;;;5032703;28;20477;-49
2022/09/01 11:55:55;;;;;;;4.13;3.73;;;17.80;99.90;;;;;;5032649;28;20792;-49
2022/09/01 11:58:33;;;;;;;5.20;3.83;;;18.00;99.90;;;;;;5032496;28;20435;-49
2022/09/01 12:01:14;;;;;;;6.40;5.43;;;18.10;99.90;;;;;;5031526;28;21018;-49
2022/09/01 12:03:43;;;;;;;14.17;7.40;;;18.10;99.90;;;;;;5030796;28;20432;-49
2022/09/01 12:06:13;;;;;;;6.93;3.80;;;18.20;99.90;;;;;;5032006;28;20438;-50
2022/09/01 12:08:42;;;;;;;8.17;4.13;;;18.20;99.90;;;;;;5031710;28;20444;-47
2022/09/01 12:11:11;;;;;;;6.72;3.38;;;18.20;99.90;;;;;;5030780;28;20447;-50
2022/09/01 12:13:41;;;;;;;3.03;2.70;;;18.20;99.90;;;;;;5031700;28;20234;-49
2022/09/01 12:16:10;;;;;;;3.45;2.72;;;18.30;99.90;;;;;;5032094;28;20474;-48
2022/09/01 12:18:46;;;;;;;11.83;4.67;;;18.30;99.90;;;;;;5031464;28;20229;-52
2022/09/01 12:21:21;;;;;;;5.00;4.50;;;18.40;99.90;;;;;;5031910;28;20794;-49
2022/09/01 12:23:49;;;;;;;6.60;3.07;;;18.30;99.90;;;;;;5031837;28;20532;-49
2022/09/01 12:26:29;;;;;;;7.93;3.63;;;18.40;99.90;;;;;;5031845;28;20642;-50
2022/09/01 12:28:57;;;;;;;3.40;3.10;;;18.50;99.90;;;;;;5030958;28;20748;-49
2022/09/01 12:31:26;;;;;;;4.32;2.50;;;18.70;99.90;;;;;;5031384;28;20441;-50
2022/09/01 12:33:55;;;;;;;3.50;3.07;;;18.60;99.90;;;;;;5031488;28;20249;-50
2022/09/01 12:36:28;;;;;;;2.70;2.20;;;18.70;99.90;;;;;;5031428;28;20825;-50
2022/09/01 12:38:57;;;;;;;3.10;2.80;;;18.70;99.90;;;;;;5030749;28;20573;-49
2022/09/01 12:41:33;;;;;;;4.05;2.60;;;18.80;99.90;;;;;;5031121;28;20430;-50
2022/09/01 12:44:31;;;;;;;4.77;2.30;;;18.90;99.90;;;;;;5031423;28;20318;-49
2022/09/01 12:46:59;;;;;;;3.80;2.17;;;18.80;99.90;;;;;;5031306;28;20451;-49
2022/09/01 12:49:38;;;;;;;3.53;2.03;;;18.70;99.90;;;;;;5030492;28;20500;-49
2022/09/01 12:52:24;;;;;;;3.63;2.30;;;18.60;99.90;;;;;;5030755;28;20463;-51
2022/09/01 12:54:55;;;;;;;2.70;2.00;;;18.70;99.90;;;;;;5031144;28;20510;-49
2022/09/01 12:57:27;;;;;;;2.90;1.93;;;18.70;99.90;;;;;;5031263;28;20442;-49